Time;durP1;ratioP1;P1;durP2;ratioP2;P2;SDS_P1;SDS_P2;PMS_P1;PMS_P2;Temp;Humidity;BMP_temperature;BMP_pressure;BME280_temperature;BME280_humidity;BME280_pressure;Samples;Min_cycle;Max_cycle;Signal;HPM_P1;HPM_P2
2022/04/29 00:01:44;;;;;;;3.33;2.40;;;19.80;93.10;;;;;;4173527;28;20220;-73
2022/04/29 00:03:46;;;;;;;3.33;2.25;;;19.80;92.80;;;;;;4173573;28;20360;-73
2022/04/29 00:05:49;;;;;;;5.72;2.38;;;19.80;93.20;;;;;;4173420;28;20317;-73
2022/04/29 00:07:53;;;;;;;2.33;1.83;;;19.80;93.00;;;;;;4173509;28;20250;-73
2022/04/29 00:09:55;;;;;;;3.17;2.20;;;19.80;93.00;;;;;;4172880;28;20374;-72
2022/04/29 00:11:59;;;;;;;3.15;1.77;;;19.80;93.00;;;;;;4174409;28;20228;-73
2022/04/29 00:14:01;;;;;;;4.53;2.13;;;19.80;93.00;;;;;;4174569;28;20220;-73
2022/04/29 00:16:05;;;;;;;3.58;1.83;;;19.80;93.00;;;;;;4171753;28;20598;-73
2022/04/29 00:18:08;;;;;;;3.17;2.33;;;19.70;93.20;;;;;;4174793;28;20219;-73
2022/04/29 00:20:11;;;;;;;3.95;2.13;;;19.70;93.00;;;;;;4174868;28;20270;-73
2022/04/29 00:22:14;;;;;;;3.25;2.15;;;19.80;93.20;;;;;;4174327;28;20270;-73
2022/04/29 00:24:17;;;;;;;3.05;1.92;;;19.80;93.20;;;;;;4174214;28;20731;-73
2022/04/29 00:26:20;;;;;;;3.50;1.90;;;19.80;93.20;;;;;;4172891;28;20224;-73
2022/04/29 00:28:22;;;;;;;3.65;2.10;;;19.80;93.20;;;;;;4174469;28;20231;-73
2022/04/29 00:30:25;;;;;;;4.25;2.50;;;19.70;93.20;;;;;;4175076;28;20236;-72
2022/04/29 00:32:27;;;;;;;2.80;1.90;;;19.70;93.20;;;;;;4174531;28;20634;-73
2022/04/29 00:34:30;;;;;;;3.67;2.28;;;19.70;93.20;;;;;;4174702;28;20219;-73
2022/04/29 00:36:32;;;;;;;3.58;2.17;;;19.70;93.40;;;;;;4174227;28;20232;-73
2022/04/29 00:38:34;;;;;;;3.20;2.20;;;19.70;93.20;;;;;;4174309;28;20274;-72
2022/04/29 00:40:38;;;;;;;3.13;2.28;;;19.70;93.20;;;;;;4175086;28;20616;-72
2022/04/29 00:42:40;;;;;;;2.63;1.90;;;19.70;93.60;;;;;;4174297;28;20290;-72
2022/04/29 00:44:44;;;;;;;4.15;2.30;;;19.70;93.30;;;;;;4173687;28;20285;-73
2022/04/29 00:46:47;;;;;;;4.72;2.28;;;19.70;93.20;;;;;;4174037;28;20224;-72
2022/04/29 00:48:49;;;;;;;2.92;2.00;;;19.70;93.40;;;;;;4173680;28;20374;-72
2022/04/29 00:50:51;;;;;;;6.07;2.45;;;19.70;93.40;;;;;;4174566;28;20637;-72
2022/04/29 00:52:56;;;;;;;4.60;2.13;;;19.70;93.40;;;;;;4173974;28;20232;-72
2022/04/29 00:55:08;;;;;;;3.50;2.03;;;19.70;93.40;;;;;;4174045;28;20223;-72
2022/04/29 00:57:19;;;;;;;2.70;1.90;;;19.70;93.30;;;;;;4173997;28;20273;-72
2022/04/29 00:59:27;;;;;;;3.15;2.10;;;19.70;93.70;;;;;;4173593;28;20219;-72
2022/04/29 01:01:32;;;;;;;3.53;2.15;;;19.70;93.60;;;;;;4174188;28;20660;-72
2022/04/29 01:03:37;;;;;;;2.67;2.10;;;19.60;93.50;;;;;;4173644;28;20289;-72
2022/04/29 01:05:41;;;;;;;3.38;1.92;;;19.70;93.60;;;;;;4174075;28;20257;-72
2022/04/29 01:07:45;;;;;;;3.20;2.00;;;19.70;93.50;;;;;;4172292;28;20614;-72
2022/04/29 01:09:47;;;;;;;3.80;2.30;;;19.70;93.90;;;;;;4173915;28;20261;-72
2022/04/29 01:11:51;;;;;;;4.90;2.35;;;19.70;93.40;;;;;;4176804;28;21799;-72
2022/04/29 01:13:55;;;;;;;3.92;2.03;;;19.60;93.70;;;;;;4175697;28;20298;-72
2022/04/29 01:15:58;;;;;;;2.15;1.95;;;19.60;93.50;;;;;;4176750;28;20212;-72
2022/04/29 01:18:03;;;;;;;2.97;2.08;;;19.60;93.50;;;;;;4176581;28;20690;-72
2022/04/29 01:20:07;;;;;;;2.95;2.10;;;19.70;93.60;;;;;;4177018;28;20219;-72
2022/04/29 01:22:11;;;;;;;3.30;2.17;;;19.70;93.50;;;;;;4176735;28;20223;-72
2022/04/29 01:24:13;;;;;;;3.58;2.30;;;19.70;94.00;;;;;;4176154;28;20215;-72
2022/04/29 01:26:16;;;;;;;3.28;2.25;;;19.70;93.70;;;;;;4175825;28;20273;-72
2022/04/29 01:28:18;;;;;;;2.88;2.10;;;19.60;93.70;;;;;;4176373;28;20227;-72
2022/04/29 01:30:21;;;;;;;5.32;2.47;;;19.60;93.60;;;;;;4176514;28;20654;-72
2022/04/29 01:32:25;;;;;;;3.17;2.17;;;19.60;93.80;;;;;;4176984;28;20623;-72
2022/04/29 01:34:27;;;;;;;3.53;2.22;;;19.60;93.60;;;;;;4176749;28;20635;-72
2022/04/29 01:36:30;;;;;;;5.15;2.38;;;19.60;93.80;;;;;;4176607;28;20640;-72
2022/04/29 01:38:34;;;;;;;3.67;2.00;;;19.60;93.70;;;;;;4176766;28;20362;-72
2022/04/29 01:40:36;;;;;;;3.22;1.98;;;19.60;93.80;;;;;;4176041;28;20273;-72
2022/04/29 01:42:40;;;;;;;3.47;1.77;;;19.60;93.70;;;;;;4176981;28;20676;-72
2022/04/29 01:44:42;;;;;;;2.75;1.77;;;19.60;93.80;;;;;;4176335;28;20223;-72
2022/04/29 01:46:46;;;;;;;3.85;2.03;;;19.60;93.70;;;;;;4176450;28;20656;-72
2022/04/29 01:48:48;;;;;;;3.80;2.25;;;19.60;93.90;;;;;;4173626;28;20224;-72
2022/04/29 01:50:51;;;;;;;3.45;2.15;;;19.60;93.90;;;;;;4175684;28;20243;-72
2022/04/29 01:52:53;;;;;;;3.60;2.03;;;19.60;93.70;;;;;;4175081;28;20321;-72
2022/04/29 01:54:57;;;;;;;4.47;2.17;;;19.60;93.90;;;;;;4176057;28;20699;-72
2022/04/29 01:56:59;;;;;;;4.57;2.10;;;19.60;93.80;;;;;;4176877;28;20305;-72
2022/04/29 01:59:02;;;;;;;5.13;2.45;;;19.60;94.00;;;;;;4176892;28;20232;-72
2022/04/29 02:01:04;;;;;;;2.53;1.90;;;19.60;93.90;;;;;;4176171;28;20220;-72
2022/04/29 02:03:07;;;;;;;3.08;2.00;;;19.60;94.00;;;;;;4173645;28;20766;-72
2022/04/29 02:05:09;;;;;;;5.40;2.38;;;19.60;94.00;;;;;;4175662;28;20231;-72
2022/04/29 02:07:13;;;;;;;2.78;2.30;;;19.60;93.90;;;;;;4175878;28;20227;-72
2022/04/29 02:09:15;;;;;;;3.95;1.95;;;19.60;94.30;;;;;;4175989;28;20212;-72
2022/04/29 02:11:19;;;;;;;4.35;2.28;;;19.60;93.90;;;;;;4176222;28;20580;-72
2022/04/29 02:13:22;;;;;;;4.25;2.40;;;19.60;94.10;;;;;;4176206;28;20227;-72
2022/04/29 02:15:24;;;;;;;3.55;2.05;;;19.60;93.90;;;;;;4175101;28;20273;-72
2022/04/29 02:17:27;;;;;;;3.15;2.00;;;19.60;94.00;;;;;;4175970;28;20848;-72
2022/04/29 02:19:29;;;;;;;2.70;1.77;;;19.60;94.10;;;;;;4176125;28;20721;-72
2022/04/29 02:21:32;;;;;;;3.30;2.20;;;19.60;94.30;;;;;;4175718;28;20258;-72
2022/04/29 02:23:34;;;;;;;4.95;2.13;;;19.60;94.70;;;;;;4176242;28;20207;-72
2022/04/29 02:25:36;;;;;;;4.20;2.45;;;19.60;94.00;;;;;;4175933;28;20273;-72
2022/04/29 02:27:40;;;;;;;2.35;2.03;;;19.60;94.30;;;;;;4176079;28;20234;-72
2022/04/29 02:29:43;;;;;;;3.15;1.90;;;19.60;94.30;;;;;;4176190;28;20234;-72
2022/04/29 02:31:45;;;;;;;3.28;1.83;;;19.60;94.30;;;;;;4174996;28;20640;-72
2022/04/29 02:33:47;;;;;;;2.75;1.80;;;19.60;94.70;;;;;;4175961;28;20216;-72
2022/04/29 02:35:50;;;;;;;5.55;2.40;;;19.60;94.30;;;;;;4174536;28;20224;-72
2022/04/29 02:37:52;;;;;;;5.15;1.90;;;19.60;94.50;;;;;;4174579;28;20254;-72
2022/04/29 02:39:55;;;;;;;3.30;2.10;;;19.60;94.50;;;;;;4175514;28;20652;-72
2022/04/29 02:41:57;;;;;;;3.45;2.20;;;19.60;94.50;;;;;;4175239;28;20277;-72
2022/04/29 02:44:01;;;;;;;3.97;2.08;;;19.60;94.20;;;;;;4174793;28;20283;-72
2022/04/29 02:46:03;;;;;;;2.97;1.90;;;19.50;94.30;;;;;;4174867;28;20597;-72
2022/04/29 02:48:06;;;;;;;3.47;2.00;;;19.50;94.10;;;;;;4175009;28;21531;-72
2022/04/29 02:50:10;;;;;;;2.40;1.83;;;19.50;94.40;;;;;;4174736;28;20242;-72
2022/04/29 02:52:14;;;;;;;3.75;2.17;;;19.60;94.10;;;;;;4174342;28;20703;-72
2022/04/29 02:54:16;;;;;;;3.50;2.10;;;19.50;94.10;;;;;;4174255;28;20211;-72
2022/04/29 02:56:19;;;;;;;2.50;1.83;;;19.60;95.00;;;;;;4174697;28;20231;-72
2022/04/29 02:58:22;;;;;;;3.80;2.15;;;19.50;94.30;;;;;;4174107;28;20842;-72
2022/04/29 03:00:25;;;;;;;2.90;2.30;;;19.60;94.10;;;;;;4174012;28;20831;-72
2022/04/29 03:02:28;;;;;;;4.10;1.90;;;19.60;94.30;;;;;;4173824;28;20277;-72
2022/04/29 03:04:30;;;;;;;2.45;1.88;;;19.50;94.30;;;;;;4174345;28;20235;-72
2022/04/29 03:06:32;;;;;;;3.75;2.08;;;19.60;94.30;;;;;;4175077;28;20228;-72
2022/04/29 03:08:35;;;;;;;3.15;1.85;;;19.50;94.30;;;;;;4174304;28;20734;-72
2022/04/29 03:10:38;;;;;;;3.63;1.80;;;19.50;94.30;;;;;;4174000;28;20688;-72
2022/04/29 03:12:41;;;;;;;4.60;2.00;;;19.50;94.20;;;;;;4174830;28;20223;-72
2022/04/29 03:14:43;;;;;;;2.50;1.92;;;19.50;94.50;;;;;;4174251;28;20216;-72
2022/04/29 03:16:47;;;;;;;3.15;1.85;;;19.50;94.40;;;;;;4174510;28;20975;-72
2022/04/29 03:18:48;;;;;;;3.97;2.17;;;19.50;94.50;;;;;;4174514;28;20278;-72
2022/04/29 03:20:53;;;;;;;3.22;1.85;;;19.50;94.60;;;;;;4174419;28;20211;-72
2022/04/29 03:22:55;;;;;;;3.33;2.00;;;19.50;94.60;;;;;;4174221;28;20231;-72
2022/04/29 03:24:57;;;;;;;3.88;2.00;;;19.50;94.70;;;;;;4173547;28;20563;-72
2022/04/29 03:26:59;;;;;;;4.00;2.20;;;19.50;94.30;;;;;;4174115;28;20266;-72
2022/04/29 03:29:02;;;;;;;5.15;1.90;;;19.50;94.70;;;;;;4174442;28;20246;-72
2022/04/29 03:31:04;;;;;;;4.63;2.45;;;19.50;94.80;;;;;;4174173;28;20680;-72
2022/04/29 03:33:08;;;;;;;3.45;2.22;;;19.50;94.40;;;;;;4173777;28;20284;-72
2022/04/29 03:35:11;;;;;;;2.72;1.80;;;19.50;94.80;;;;;;4174070;28;20242;-72
2022/04/29 03:37:13;;;;;;;5.18;1.90;;;19.50;94.40;;;;;;4175386;28;20281;-72
2022/04/29 03:39:16;;;;;;;4.43;2.17;;;19.50;94.60;;;;;;4175358;28;20621;-72
2022/04/29 03:41:19;;;;;;;4.40;2.03;;;19.50;94.60;;;;;;4174980;28;20269;-72
2022/04/29 03:43:22;;;;;;;4.75;2.00;;;19.50;94.40;;;;;;4174866;28;20628;-72
2022/04/29 03:45:25;;;;;;;4.13;2.15;;;19.50;94.30;;;;;;4175441;28;20281;-72
2022/04/29 03:47:27;;;;;;;4.32;1.98;;;19.50;94.30;;;;;;4174376;28;20614;-72
2022/04/29 03:49:36;;;;;;;5.22;2.22;;;19.50;94.60;;;;;;4174241;28;20281;-72
2022/04/29 03:51:39;;;;;;;3.20;2.00;;;19.50;94.40;;;;;;4170908;28;20234;-72
2022/04/29 03:53:41;;;;;;;4.30;2.00;;;19.50;94.60;;;;;;4174928;28;20220;-72
2022/04/29 03:55:43;;;;;;;3.33;2.08;;;19.50;94.50;;;;;;4174687;28;20250;-72
2022/04/29 03:57:46;;;;;;;3.58;2.10;;;19.50;94.40;;;;;;4175168;28;20223;-72
2022/04/29 03:59:49;;;;;;;3.20;2.00;;;19.50;94.50;;;;;;4174866;28;20224;-72
2022/04/29 04:01:51;;;;;;;4.45;2.30;;;19.40;94.50;;;;;;4175622;28;20215;-72
2022/04/29 04:03:53;;;;;;;3.30;2.28;;;19.50;94.40;;;;;;4174394;28;20313;-72
2022/04/29 04:08:17;;;;;;;3.35;2.28;;;19.50;94.40;;;;;;4174778;28;20204;-72
2022/04/29 04:10:19;;;;;;;3.70;1.70;;;19.50;94.80;;;;;;4174609;28;20228;-72
2022/04/29 04:12:21;;;;;;;3.20;2.05;;;19.50;94.40;;;;;;4174325;28;20247;-72
2022/04/29 04:14:24;;;;;;;2.40;1.80;;;19.50;94.50;;;;;;4174322;28;20223;-72
2022/04/29 04:16:26;;;;;;;2.95;2.05;;;19.40;94.40;;;;;;4174337;28;20270;-72
2022/04/29 04:18:29;;;;;;;2.63;1.95;;;19.40;94.30;;;;;;4175288;28;20718;-72
2022/04/29 04:20:31;;;;;;;2.95;1.90;;;19.40;94.40;;;;;;4173871;28;20269;-72
2022/04/29 04:22:36;;;;;;;4.03;1.83;;;19.40;94.30;;;;;;4174897;28;20265;-72
2022/04/29 04:24:38;;;;;;;3.25;1.80;;;19.40;94.40;;;;;;4174148;28;20223;-72
2022/04/29 04:26:41;;;;;;;4.57;2.08;;;19.40;94.60;;;;;;4173853;28;20635;-72
2022/04/29 04:28:43;;;;;;;3.17;2.00;;;19.50;94.40;;;;;;4174935;28;20317;-72
2022/04/29 04:30:45;;;;;;;3.60;2.10;;;19.40;94.20;;;;;;4174320;28;20246;-72
2022/04/29 04:32:48;;;;;;;3.67;1.90;;;19.40;94.20;;;;;;4174282;28;20281;-72
2022/04/29 04:34:53;;;;;;;3.35;1.98;;;19.40;94.30;;;;;;4174950;28;20250;-72
2022/04/29 04:36:55;;;;;;;3.00;1.95;;;19.40;94.30;;;;;;4173447;28;20273;-72
2022/04/29 04:39:00;;;;;;;3.58;2.13;;;19.40;94.40;;;;;;4175110;28;20220;-72
2022/04/29 04:41:02;;;;;;;3.38;2.00;;;19.40;94.70;;;;;;4173619;28;20621;-72
2022/04/29 04:43:04;;;;;;;3.78;2.33;;;19.40;94.40;;;;;;4174436;28;20277;-72
2022/04/29 04:45:08;;;;;;;3.55;2.10;;;19.40;94.30;;;;;;4174672;28;20216;-72
2022/04/29 04:47:10;;;;;;;3.13;2.00;;;19.40;94.40;;;;;;4176981;28;20278;-72
2022/04/29 04:49:14;;;;;;;2.90;1.90;;;19.40;94.30;;;;;;4177204;28;20219;-72
2022/04/29 04:51:16;;;;;;;5.70;2.20;;;19.40;94.40;;;;;;4175925;28;20220;-72
2022/04/29 04:53:19;;;;;;;3.88;1.80;;;19.40;94.20;;;;;;4177371;28;20231;-72
2022/04/29 04:55:22;;;;;;;3.92;2.25;;;19.20;94.40;;;;;;4177048;28;20220;-72
2022/04/29 04:57:25;;;;;;;2.47;1.88;;;19.00;94.70;;;;;;4176060;28;20273;-72
2022/04/29 04:59:27;;;;;;;3.40;1.90;;;19.10;94.70;;;;;;4177112;28;20228;-72
2022/04/29 05:01:29;;;;;;;3.83;1.83;;;19.20;94.30;;;;;;4176526;28;20282;-72
2022/04/29 05:03:33;;;;;;;3.40;1.98;;;19.30;94.50;;;;;;4175580;28;20220;-72
2022/04/29 05:05:35;;;;;;;2.85;1.80;;;19.40;94.50;;;;;;4177007;28;20285;-72
2022/04/29 05:07:40;;;;;;;2.40;2.03;;;19.40;94.80;;;;;;4176562;28;20228;-72
2022/04/29 05:09:42;;;;;;;5.13;1.90;;;19.50;94.90;;;;;;4175587;28;20220;-72
2022/04/29 05:11:46;;;;;;;6.18;2.03;;;19.40;94.80;;;;;;4176477;28;20265;-72
2022/04/29 05:13:48;;;;;;;3.75;1.88;;;19.40;94.90;;;;;;4175687;28;20223;-72
2022/04/29 05:15:50;;;;;;;2.80;1.77;;;19.50;95.00;;;;;;4177073;28;20223;-72
2022/04/29 05:17:53;;;;;;;3.63;1.80;;;19.50;95.00;;;;;;4177432;28;20220;-72
2022/04/29 05:19:55;;;;;;;2.88;1.67;;;19.50;95.10;;;;;;4177782;28;20277;-72
2022/04/29 05:21:57;;;;;;;6.95;2.17;;;19.50;95.10;;;;;;4176314;28;20254;-72
2022/04/29 05:24:00;;;;;;;3.88;1.83;;;19.50;95.20;;;;;;4176601;28;20228;-72
2022/04/29 05:26:02;;;;;;;5.00;2.28;;;19.60;95.20;;;;;;4176015;28;20228;-72
2022/04/29 05:28:08;;;;;;;2.78;2.00;;;19.60;95.20;;;;;;4176419;28;20927;-72
2022/04/29 05:30:12;;;;;;;2.60;2.10;;;19.60;95.20;;;;;;4176004;28;20353;-72
2022/04/29 05:32:15;;;;;;;3.83;2.08;;;19.70;95.20;;;;;;4175271;28;20269;-72
2022/04/29 05:34:19;;;;;;;2.92;1.80;;;19.70;95.20;;;;;;4175569;28;20220;-72
2022/04/29 05:36:21;;;;;;;3.45;2.00;;;19.70;95.20;;;;;;4176631;28;20211;-72
2022/04/29 05:38:24;;;;;;;2.08;1.67;;;19.70;95.20;;;;;;4174990;28;20285;-72
2022/04/29 05:42:45;;;;;;;3.22;1.80;;;19.80;95.20;;;;;;4176600;28;20184;-72
2022/04/29 05:44:49;;;;;;;2.83;1.67;;;19.80;95.50;;;;;;4175872;28;20273;-72
2022/04/29 05:46:51;;;;;;;2.90;1.70;;;19.80;95.20;;;;;;4177303;28;20220;-72
2022/04/29 05:48:53;;;;;;;3.67;1.90;;;19.80;95.20;;;;;;4175756;28;20224;-72
2022/04/29 05:50:56;;;;;;;2.85;1.90;;;19.80;95.20;;;;;;4176107;28;20752;-72
2022/04/29 05:52:58;;;;;;;3.72;2.05;;;19.80;95.10;;;;;;4176346;28;20293;-72
2022/04/29 05:55:00;;;;;;;2.75;1.63;;;19.80;95.50;;;;;;4176284;28;20640;-72
2022/04/29 05:57:04;;;;;;;3.63;1.73;;;19.90;95.10;;;;;;4176431;28;20223;-72
2022/04/29 05:59:06;;;;;;;3.00;1.75;;;19.90;95.10;;;;;;4177072;28;20215;-72
2022/04/29 06:01:10;;;;;;;2.85;1.73;;;19.90;95.40;;;;;;4176944;28;20289;-72
2022/04/29 06:03:12;;;;;;;5.07;1.80;;;19.90;95.10;;;;;;4176358;28;20290;-72
2022/04/29 06:05:15;;;;;;;1.83;1.60;;;19.90;94.90;;;;;;4175875;28;20232;-72
2022/04/29 06:07:17;;;;;;;2.63;1.60;;;19.90;95.00;;;;;;4176017;28;20273;-72
2022/04/29 06:09:19;;;;;;;2.45;1.67;;;19.90;94.90;;;;;;4176545;28;20220;-72
2022/04/29 06:11:24;;;;;;;2.70;1.70;;;20.00;95.00;;;;;;4176374;28;20220;-72
2022/04/29 06:13:26;;;;;;;4.07;1.80;;;20.00;95.00;;;;;;4175826;28;20243;-72
2022/04/29 06:15:28;;;;;;;5.05;1.60;;;20.00;94.90;;;;;;4175792;28;20346;-72
2022/04/29 06:17:32;;;;;;;1.90;1.30;;;20.00;94.90;;;;;;4176521;28;20730;-72
2022/04/29 06:19:34;;;;;;;2.83;1.52;;;20.00;94.90;;;;;;4176328;28;20215;-72
2022/04/29 06:21:38;;;;;;;3.45;1.58;;;20.00;94.90;;;;;;4176139;28;20220;-72
2022/04/29 06:23:41;;;;;;;6.10;2.00;;;20.00;94.90;;;;;;4175994;28;20212;-72
2022/04/29 06:25:43;;;;;;;2.78;1.88;;;20.00;94.80;;;;;;4175755;28;20220;-72
2022/04/29 06:27:45;;;;;;;4.43;1.92;;;20.10;94.90;;;;;;4176004;28;20637;-72
2022/04/29 06:29:48;;;;;;;3.78;2.08;;;20.10;94.90;;;;;;4175739;28;20232;-72
2022/04/29 06:31:50;;;;;;;4.03;2.00;;;20.10;94.90;;;;;;4175880;28;20219;-72
2022/04/29 06:33:54;;;;;;;4.03;1.92;;;20.10;94.90;;;;;;4175928;28;20278;-72
2022/04/29 06:35:56;;;;;;;2.72;1.58;;;20.10;94.90;;;;;;4175309;28;20227;-72
2022/04/29 06:37:59;;;;;;;4.68;1.83;;;20.10;94.90;;;;;;4176023;28;20289;-71
2022/04/29 06:40:02;;;;;;;2.42;1.40;;;20.20;94.80;;;;;;4175780;28;20232;-72
2022/04/29 06:42:05;;;;;;;3.35;1.63;;;20.20;94.80;;;;;;4175718;28;20227;-72
2022/04/29 06:44:07;;;;;;;4.35;1.85;;;20.20;94.80;;;;;;4175898;28;20627;-72
2022/04/29 06:46:10;;;;;;;5.50;1.90;;;20.20;94.80;;;;;;4175577;28;20270;-72
2022/04/29 06:48:12;;;;;;;2.83;1.55;;;20.20;94.70;;;;;;4176291;28;20231;-72
2022/04/29 06:50:16;;;;;;;3.75;1.70;;;20.20;94.70;;;;;;4176423;28;20220;-72
2022/04/29 06:52:18;;;;;;;3.83;1.70;;;20.30;94.70;;;;;;4175632;28;20216;-72
2022/04/29 06:54:21;;;;;;;4.57;2.05;;;20.30;94.70;;;;;;4175610;28;20240;-72
2022/04/29 06:56:23;;;;;;;2.83;1.77;;;20.30;95.00;;;;;;4175341;28;20568;-72
2022/04/29 06:58:25;;;;;;;3.10;1.90;;;20.30;94.70;;;;;;4175102;28;20277;-72
2022/04/29 07:00:28;;;;;;;1.90;1.40;;;20.30;94.70;;;;;;4175389;28;20285;-72
2022/04/29 07:02:31;;;;;;;4.85;1.70;;;20.30;94.60;;;;;;4176204;28;20377;-72
2022/04/29 07:04:34;;;;;;;2.50;1.80;;;20.30;94.70;;;;;;4172797;28;20300;-72
2022/04/29 07:06:38;;;;;;;4.53;1.77;;;20.40;94.60;;;;;;4175344;28;20224;-72
2022/04/29 07:08:41;;;;;;;3.55;1.92;;;20.40;94.70;;;;;;4171222;28;20273;-71
2022/04/29 07:10:44;;;;;;;3.78;2.50;;;20.30;94.70;;;;;;4166321;28;21205;-72
2022/04/29 07:12:47;;;;;;;5.88;2.38;;;20.30;94.70;;;;;;4172618;28;20734;-71
2022/04/29 07:14:52;;;;;;;6.05;2.58;;;20.40;94.60;;;;;;4167296;28;21006;-72
2022/04/29 07:16:55;;;;;;;7.65;2.35;;;20.40;94.50;;;;;;4171735;28;20212;-72
2022/04/29 07:18:57;;;;;;;8.40;2.50;;;20.50;94.80;;;;;;4168754;28;20216;-72
2022/04/29 07:21:00;;;;;;;7.25;2.70;;;20.40;94.60;;;;;;4174351;28;20223;-72
2022/04/29 07:23:04;;;;;;;11.93;2.50;;;20.40;94.50;;;;;;4173018;28;20308;-72
2022/04/29 07:25:07;;;;;;;8.52;2.45;;;20.40;94.80;;;;;;4174655;28;20223;-72
2022/04/29 07:27:09;;;;;;;8.25;2.40;;;20.40;94.70;;;;;;4169020;28;20224;-72
2022/04/29 07:29:12;;;;;;;8.75;2.45;;;20.40;94.70;;;;;;4167014;28;20625;-71
2022/04/29 07:31:14;;;;;;;7.22;2.55;;;20.50;94.60;;;;;;4173074;28;20212;-71
2022/04/29 07:33:17;;;;;;;7.22;2.28;;;20.50;94.40;;;;;;4175132;28;20249;-71
2022/04/29 07:42:20;;;;;;;10.57;2.45;;;20.40;94.70;;;;;;4172278;28;20200;-73
2022/04/29 07:44:22;;;;;;;9.48;2.55;;;20.30;94.80;;;;;;4172479;28;20208;-72
2022/04/29 07:46:25;;;;;;;5.85;2.10;;;20.30;95.30;;;;;;4164245;28;20342;-73
2022/04/29 07:48:27;;;;;;;5.28;2.20;;;20.50;95.20;;;;;;4165143;28;20673;-73
2022/04/29 07:50:31;;;;;;;7.55;2.55;;;20.60;95.20;;;;;;4164742;28;20212;-74
2022/04/29 07:52:34;;;;;;;11.77;2.55;;;20.60;95.10;;;;;;4170871;28;20220;-74
2022/04/29 07:54:36;;;;;;;7.20;2.50;;;20.70;95.30;;;;;;4172012;28;20231;-72
2022/04/29 07:56:40;;;;;;;13.18;2.83;;;20.50;95.00;;;;;;4152391;28;20342;-74
2022/04/29 07:58:43;;;;;;;11.38;2.90;;;20.50;95.20;;;;;;4151794;28;20228;-73
2022/04/29 08:00:45;;;;;;;11.90;2.70;;;20.60;95.20;;;;;;4148865;28;20273;-73
2022/04/29 08:02:47;;;;;;;8.77;2.35;;;20.70;95.10;;;;;;4144326;28;20219;-75
2022/04/29 08:04:50;;;;;;;8.90;2.70;;;20.70;95.20;;;;;;4146186;28;20973;-74
2022/04/29 08:06:52;;;;;;;10.23;2.53;;;20.70;95.20;;;;;;4153376;28;20263;-74
2022/04/29 08:08:55;;;;;;;15.80;2.28;;;20.80;95.20;;;;;;4157236;28;20219;-74
2022/04/29 08:10:58;;;;;;;12.55;2.45;;;20.80;95.30;;;;;;4168265;28;20676;-74
2022/04/29 08:13:04;;;;;;;17.48;2.30;;;20.80;95.20;;;;;;4168382;28;20296;-74
2022/04/29 08:15:09;;;;;;;6.03;2.08;;;20.80;95.30;;;;;;4164925;28;20236;-74
2022/04/29 08:17:13;;;;;;;8.32;2.22;;;20.90;95.40;;;;;;4158682;28;20220;-73
2022/04/29 08:19:16;;;;;;;14.65;2.28;;;20.80;95.30;;;;;;4161903;28;20271;-74
2022/04/29 08:21:18;;;;;;;21.00;3.08;;;20.90;95.50;;;;;;4170880;28;20305;-73
2022/04/29 08:23:21;;;;;;;12.38;3.10;;;20.80;95.50;;;;;;4163483;28;20211;-76
2022/04/29 08:25:24;;;;;;;12.60;2.03;;;20.70;95.70;;;;;;4169131;28;20656;-75
2022/04/29 08:27:28;;;;;;;8.00;1.60;;;20.70;95.70;;;;;;4170836;28;20227;-76
2022/04/29 08:29:31;;;;;;;5.80;1.70;;;20.80;95.60;;;;;;4168577;28;20258;-78
2022/04/29 08:31:34;;;;;;;10.02;2.22;;;20.80;95.50;;;;;;4165432;28;20235;-75
2022/04/29 08:33:37;;;;;;;7.43;1.95;;;20.90;95.60;;;;;;4170443;28;20219;-76
2022/04/29 08:35:39;;;;;;;11.15;2.63;;;20.90;95.50;;;;;;4175967;28;20207;-76
2022/04/29 08:37:43;;;;;;;9.68;2.38;;;20.80;95.50;;;;;;4172749;28;20685;-76
2022/04/29 08:39:46;;;;;;;6.95;2.30;;;20.90;95.90;;;;;;4176343;28;21016;-74
2022/04/29 08:41:51;;;;;;;7.07;2.30;;;20.80;95.50;;;;;;4171254;28;20733;-75
2022/04/29 08:43:55;;;;;;;7.72;2.15;;;20.90;96.00;;;;;;4168437;28;20273;-76
2022/04/29 08:45:59;;;;;;;12.18;2.85;;;20.90;95.80;;;;;;4168120;28;20224;-75
2022/04/29 08:48:01;;;;;;;15.85;2.95;;;20.90;95.90;;;;;;4175345;28;20737;-74
2022/04/29 08:50:06;;;;;;;11.15;2.78;;;20.90;95.90;;;;;;4166725;28;20617;-75
2022/04/29 08:52:09;;;;;;;13.57;2.83;;;20.90;95.90;;;;;;4169139;28;20265;-74
2022/04/29 08:58:36;;;;;;;7.50;2.40;;;20.90;95.90;;;;;;4170491;28;20312;-75
2022/04/29 08:58:56;;;;;;;8.63;2.25;;;20.80;96.00;;;;;;4170024;28;20215;-75
2022/04/29 09:01:02;;;;;;;16.70;2.65;;;20.90;96.10;;;;;;4168581;28;20285;-75
2022/04/29 09:03:07;;;;;;;21.60;3.42;;;20.90;96.10;;;;;;4170745;28;20761;-75
2022/04/29 09:05:11;;;;;;;6.55;2.40;;;20.80;96.10;;;;;;4169227;28;20262;-73
2022/04/29 09:07:15;;;;;;;10.93;2.53;;;20.80;96.30;;;;;;4168491;28;20251;-75
2022/04/29 09:09:21;;;;;;;12.95;2.58;;;20.90;96.40;;;;;;4175672;28;20216;-76
2022/04/29 09:11:25;;;;;;;6.75;1.70;;;20.90;96.40;;;;;;4171171;28;20228;-78
2022/04/29 09:13:29;;;;;;;10.57;2.45;;;20.90;96.50;;;;;;4170153;28;20219;-77
2022/04/29 09:15:31;;;;;;;9.48;2.72;;;20.90;96.60;;;;;;4167502;28;20227;-77
2022/04/29 09:17:35;;;;;;;10.50;2.13;;;20.90;96.50;;;;;;4164985;28;20219;-75
2022/04/29 09:19:37;;;;;;;7.50;2.28;;;20.90;96.50;;;;;;4170906;28;20216;-74
2022/04/29 09:21:39;;;;;;;7.93;2.50;;;20.90;96.60;;;;;;4174619;28;20305;-76
2022/04/29 09:23:44;;;;;;;11.55;2.15;;;20.90;96.70;;;;;;4162168;28;20216;-74
2022/04/29 09:25:46;;;;;;;6.20;2.30;;;20.90;96.60;;;;;;4174075;28;20220;-74
2022/04/29 09:27:56;;;;;;;6.30;2.08;;;21.00;96.70;;;;;;4170820;28;20366;-76
2022/04/29 09:29:59;;;;;;;11.65;2.22;;;21.00;96.70;;;;;;4168556;28;20223;-76
2022/04/29 09:32:03;;;;;;;6.72;1.95;;;21.00;96.80;;;;;;4168705;28;20273;-74
2022/04/29 09:34:06;;;;;;;8.85;2.17;;;21.00;96.90;;;;;;4175051;28;20223;-74
2022/04/29 09:36:22;;;;;;;7.47;1.98;;;21.00;96.90;;;;;;4175050;28;20730;-78
2022/04/29 09:40:44;;;;;;;6.40;2.00;;;21.00;97.00;;;;;;4171691;28;20196;-79
2022/04/29 09:42:47;;;;;;;8.07;2.30;;;21.10;97.00;;;;;;4173742;28;20270;-80
2022/04/29 09:44:50;;;;;;;5.38;2.22;;;21.00;97.00;;;;;;4169141;28;20269;-75
2022/04/29 09:46:52;;;;;;;7.57;2.28;;;21.00;97.00;;;;;;4170463;28;20301;-75
2022/04/29 09:49:07;;;;;;;7.10;2.25;;;21.00;97.00;;;;;;4173519;28;20749;-78
2022/04/29 09:51:11;;;;;;;7.38;2.42;;;21.00;97.00;;;;;;4173097;28;20305;-79
2022/04/29 09:53:17;;;;;;;9.05;2.13;;;21.10;97.10;;;;;;4178214;28;20223;-80
2022/04/29 09:55:21;;;;;;;9.43;2.35;;;21.10;97.20;;;;;;4167049;28;20243;-81
2022/04/29 09:57:24;;;;;;;9.40;2.47;;;21.10;97.30;;;;;;4176375;28;20223;-81
2022/04/29 09:59:28;;;;;;;8.43;2.63;;;21.10;97.20;;;;;;4176131;28;20215;-81
2022/04/29 10:01:30;;;;;;;10.48;2.67;;;21.10;97.30;;;;;;4172166;28;20545;-77
2022/04/29 10:03:35;;;;;;;6.45;2.00;;;21.10;97.20;;;;;;4168465;28;20235;-79
2022/04/29 10:05:42;;;;;;;10.20;2.13;;;21.10;97.40;;;;;;4172652;28;20254;-80
2022/04/29 10:07:47;;;;;;;8.73;1.85;;;21.10;97.30;;;;;;4176950;28;20215;-80
2022/04/29 10:09:51;;;;;;;9.68;2.60;;;21.10;97.30;;;;;;4174515;28;20281;-79
2022/04/29 10:11:56;;;;;;;8.40;2.33;;;21.10;97.40;;;;;;4173048;28;20216;-78
2022/04/29 10:14:04;;;;;;;6.85;2.20;;;21.10;97.40;;;;;;4176192;28;20925;-80
2022/04/29 10:16:07;;;;;;;6.20;2.33;;;21.10;97.40;;;;;;4175228;28;20284;-82
2022/04/29 10:22:55;;;;;;;6.70;2.67;;;21.20;97.70;;;;;;4174009;28;20616;-79
2022/04/29 10:24:58;;;;;;;5.45;2.13;;;21.20;97.60;;;;;;4170821;28;20277;-78
2022/04/29 10:27:01;;;;;;;5.93;2.05;;;21.20;97.70;;;;;;4174921;28;20220;-78
2022/04/29 10:29:04;;;;;;;8.02;2.28;;;21.20;97.70;;;;;;4169954;28;20232;-79
2022/04/29 10:31:09;;;;;;;6.20;2.00;;;21.30;97.70;;;;;;4172094;28;20220;-79
2022/04/29 10:33:12;;;;;;;8.52;2.83;;;21.30;97.60;;;;;;4172708;28;20216;-77
2022/04/29 10:35:45;;;;;;;7.97;2.25;;;21.30;97.70;;;;;;4171602;28;20309;-77
2022/04/29 10:37:48;;;;;;;8.82;2.47;;;21.30;97.60;;;;;;4173602;28;20215;-79
2022/04/29 10:40:10;;;;;;;7.03;2.03;;;21.30;97.50;;;;;;4170005;28;20254;-79
2022/04/29 10:42:12;;;;;;;10.57;2.88;;;21.30;97.60;;;;;;4174767;28;20216;-77
2022/04/29 10:44:16;;;;;;;11.32;3.33;;;21.40;97.40;;;;;;4173047;28;20645;-81
2022/04/29 10:46:23;;;;;;;10.20;3.00;;;21.30;97.40;;;;;;4172540;28;20216;-79
2022/04/29 10:48:32;;;;;;;10.10;2.65;;;21.40;97.40;;;;;;4176426;28;20264;-80
2022/04/29 10:50:38;;;;;;;5.28;2.60;;;21.40;97.60;;;;;;4175612;28;20250;-80
2022/04/29 10:52:41;;;;;;;6.88;2.40;;;21.40;97.60;;;;;;4172640;28;20745;-80
2022/04/29 10:54:45;;;;;;;6.88;2.90;;;21.40;97.50;;;;;;4172265;28;20431;-76
2022/04/29 10:57:01;;;;;;;8.82;2.67;;;21.50;97.50;;;;;;4173619;28;20236;-78
2022/04/29 10:59:19;;;;;;;10.80;3.53;;;21.50;97.60;;;;;;4172874;28;20220;-78
2022/04/29 11:01:24;;;;;;;7.00;2.53;;;21.50;97.60;;;;;;4171814;28;20644;-77
2022/04/29 11:03:36;;;;;;;5.78;2.65;;;21.50;97.60;;;;;;4169254;28;20244;-78